CYQZ Airport Information

Runway Information
Runway 13 Length 5500 ft width 200 ft
Elevation 1789 ft Threshold 0 ft Heading 150
Runway 31 Length 5500 ft Width 200 ft
Elevation 1783 ft Threshold 0 ft Heading 330
Airport Frequencies
Type A/G Name WILLIAMS L Frequency 122.2 MHZ
Type AWOS Name AWOS Frequency 124.4 MHZ
Type RCO Name WILLIAMS L Frequency 122.2 MHZ
Airport Navaids
Type NDB Name Quesnel Frequency 359 KHZ
Airport Weather Information & NOTAM
ADDS - METARS form results

(1249 UTC 24 January 2019)
Data provider http://aviationweather.gov/metar/data/
 
METAR text: CYQZ 241246Z AUTO 00000KT 3SM BR CLR M07/M08 A3036 RMK SLP318
Conditions at: CYQZ (QUESNEL AIRPORT , BC, CA) observed 1246 UTC 24 January 2019
Temperature: -7.0°C (19°F)
Dewpoint: -8.0°C (18°F) [RH = 93%]
Pressure (altimeter): 30.36 inches Hg (1028.2 mb)
[Sea-level pressure: 1031.8 mb]
Winds: calm
Visibility: 3 miles ( 5 km)
Ceiling: at least 12,000 feet AGL
Clouds: sky clear below 12,000 feet AGL
Weather: BR  (mist)

METAR text: CYQZ 241242Z AUTO VRB02KT 2 1/2SM BR CLR M07/M07 A3036 RMK SLP318
Conditions at: CYQZ (QUESNEL AIRPORT , BC, CA) observed 1242 UTC 24 January 2019
Temperature: -7.0°C (19°F)
Dewpoint: -7.0°C (19°F) [RH = 100%]
Pressure (altimeter): 30.36 inches Hg (1028.2 mb)
[Sea-level pressure: 1031.8 mb]
Winds: variable direction winds at 2 MPH (2 knots; 1.0 m/s)
Visibility: 2.50 miles (4.02 km)
Ceiling: at least 12,000 feet AGL
Clouds: sky clear below 12,000 feet AGL
Weather: BR  (mist)

METAR text: CYQZ 241231Z AUTO VRB02KT 3SM BR CLR M05/M06 A3036 RMK SLP316
Conditions at: CYQZ (QUESNEL AIRPORT , BC, CA) observed 1231 UTC 24 January 2019
Temperature: -5.0°C (23°F)
Dewpoint: -6.0°C (21°F) [RH = 93%]
Pressure (altimeter): 30.36 inches Hg (1028.2 mb)
[Sea-level pressure: 1031.6 mb]
Winds: variable direction winds at 2 MPH (2 knots; 1.0 m/s)
Visibility: 3 miles ( 5 km)
Ceiling: at least 12,000 feet AGL
Clouds: sky clear below 12,000 feet AGL
Weather: BR  (mist)

METAR text: CYQZ 241220Z AUTO 00000KT 1 1/2SM BR CLR M07/M08 A3036 RMK VIS VRB 1/4-3 SLP317
Conditions at: CYQZ (QUESNEL AIRPORT , BC, CA) observed 1220 UTC 24 January 2019
Temperature: -7.0°C (19°F)
Dewpoint: -8.0°C (18°F) [RH = 93%]
Pressure (altimeter): 30.36 inches Hg (1028.2 mb)
[Sea-level pressure: 1031.7 mb]
Winds: calm
Visibility: 1.50 miles (2.41 km)
Ceiling: at least 12,000 feet AGL
Clouds: sky clear below 12,000 feet AGL
Weather: BR  (mist)

METAR text: CYQZ 241219Z AUTO 00000KT 2 1/2SM BR CLR M06/M06 A3036 RMK VIS VRB 1-3 SLP317
Conditions at: CYQZ (QUESNEL AIRPORT , BC, CA) observed 1219 UTC 24 January 2019
Temperature: -6.0°C (21°F)
Dewpoint: -6.0°C (21°F) [RH = 100%]
Pressure (altimeter): 30.36 inches Hg (1028.2 mb)
[Sea-level pressure: 1031.7 mb]
Winds: calm
Visibility: 2.50 miles (4.02 km)
Ceiling: at least 12,000 feet AGL
Clouds: sky clear below 12,000 feet AGL
Weather: BR  (mist)

METAR text: CYQZ 241214Z AUTO 00000KT 5SM BR CLR M07/M08 A3036 RMK SLP317
Conditions at: CYQZ (QUESNEL AIRPORT , BC, CA) observed 1214 UTC 24 January 2019
Temperature: -7.0°C (19°F)
Dewpoint: -8.0°C (18°F) [RH = 93%]
Pressure (altimeter): 30.36 inches Hg (1028.2 mb)
[Sea-level pressure: 1031.7 mb]
Winds: calm
Visibility: 5 miles ( 8 km)
Ceiling: at least 12,000 feet AGL
Clouds: sky clear below 12,000 feet AGL
Weather: BR  (mist)

METAR text: CYQZ 241200Z AUTO 19002KT 9SM FEW070 M05/M06 A3036 RMK SLP316
Conditions at: CYQZ (QUESNEL AIRPORT , BC, CA) observed 1200 UTC 24 January 2019
Temperature: -5.0°C (23°F)
Dewpoint: -6.0°C (21°F) [RH = 93%]
Pressure (altimeter): 30.36 inches Hg (1028.2 mb)
[Sea-level pressure: 1031.6 mb]
Winds: from the S (190 degrees) at 2 MPH (2 knots; 1.0 m/s)
Visibility: 9 miles (14 km)
Ceiling: at least 12,000 feet AGL
Clouds: few clouds at 7000 feet AGL
Weather: no significant weather observed at this time

Forecast for: AMD
Text: TAF AMD CYQZ 241235Z 2412/2424 16005KT P6SM SCT012 SCT080
Forecast period: 1200 to 1800 UTC 24 January 2019
Forecast type: FROM: standard forecast or significant change
Winds: from the SSE (160 degrees) at 6 MPH (5 knots; 2.6 m/s)
Visibility: 6 or more miles 10+ km)
Ceiling: at least 12,000 feet AGL
Clouds: scattered clouds at 1200 feet AGL
scattered clouds at 8000 feet AGL
Weather: no significant weather forecast for this period
Text: TEMPO 2412/2418 1SM BR BKN012 BKN080
Forecast period: 1200 to 1800 UTC 24 January 2019
Forecast type: TEMPORARY: The following changes expected for less than half the time period
Visibility: 1.00 miles (1.61 km)
Ceiling: 1200 feet AGL
Clouds: broken clouds at 1200 feet AGL
broken clouds at 8000 feet AGL
Weather: BR  (mist)
Text: FM241800 16005KT P6SM SCT010 BKN150
Forecast period: 1800 to 2200 UTC 24 January 2019
Forecast type: FROM: standard forecast or significant change
Winds: from the SSE (160 degrees) at 6 MPH (5 knots; 2.6 m/s)
Visibility: 6 or more miles 10+ km)
Ceiling: 15000 feet AGL
Clouds: scattered clouds at 1000 feet AGL
broken clouds at 15000 feet AGL
Weather: no significant weather forecast for this period
Text: TEMPO 2418/2422 BKN010
Forecast period: 1800 to 2200 UTC 24 January 2019
Forecast type: TEMPORARY: The following changes expected for less than half the time period
Visibility: missing
Ceiling: 1000 feet AGL
Clouds: broken clouds at 1000 feet AGL
Weather: no significant weather forecast for this period
Text: FM242200 VRB03KT P6SM -SN SCT012 OVC060
Forecast period: 2200 UTC 24 January 2019 to 0000 UTC 25 January 2019
Forecast type: FROM: standard forecast or significant change
Winds: variable direction winds at 3 MPH (3 knots; 1.5 m/s)
Visibility: 6 or more miles 10+ km)
Ceiling: 6000 feet AGL
Clouds: scattered clouds at 1200 feet AGL
overcast cloud deck at 6000 feet AGL
Weather: -SN  (light snow)
Text: TEMPO 2422/2424 2SM -SN BKN012 RMK FCST BASED ON AUTO OBS. NXT FCST BY 241900Z
Forecast period: 2200 UTC 24 January 2019 to 0000 UTC 25 January 2019
Forecast type: TEMPORARY: The following changes expected for less than half the time period
Visibility: 2.00 miles (3.22 km)
Ceiling: 1200 feet AGL
Clouds: broken clouds at 1200 feet AGL
Weather: -SN  (light snow)